Time;durP1;ratioP1;P1;durP2;ratioP2;P2;SDS_P1;SDS_P2;PMS_P1;PMS_P2;Temp;Humidity;BMP_temperature;BMP_pressure;BME280_temperature;BME280_humidity;BME280_pressure;Samples;Min_cycle;Max_cycle;Signal;HPM_P1;HPM_P2
2022/03/30 00:00:35;;;;;;;22.50;9.30;;;;;;;14.12;45.59;94166.91;5094180;28;20198;-76
2022/03/30 00:03:04;;;;;;;14.27;9.03;;;;;;;14.10;45.49;94156.00;5091215;28;20189;-77
2022/03/30 00:05:31;;;;;;;23.00;9.70;;;;;;;14.07;45.19;94159.69;5086590;28;20192;-75
2022/03/30 00:07:58;;;;;;;15.20;9.73;;;;;;;14.03;45.52;94151.56;5085030;28;20213;-73
2022/03/30 00:10:25;;;;;;;16.40;9.93;;;;;;;14.04;45.66;94163.44;5087335;28;20657;-76
2022/03/30 00:12:52;;;;;;;15.57;9.53;;;;;;;14.02;45.45;94155.09;5087124;28;20189;-77
2022/03/30 00:15:19;;;;;;;17.33;9.00;;;;;;;13.97;45.61;94144.53;5087079;28;20198;-73
2022/03/30 00:17:45;;;;;;;13.17;9.03;;;;;;;13.97;45.74;94154.00;5086935;28;20177;-78
2022/03/30 00:20:14;;;;;;;14.87;9.80;;;;;;;13.96;45.75;94160.13;5087415;28;20194;-78
2022/03/30 00:22:41;;;;;;;18.53;9.40;;;;;;;13.92;45.86;94148.59;5086989;28;20201;-79
2022/03/30 00:25:09;;;;;;;16.23;10.40;;;;;;;13.92;45.93;94146.81;5087765;28;20205;-77
2022/03/30 00:27:37;;;;;;;16.57;10.53;;;;;;;13.90;46.03;94146.16;5081875;28;20220;-75
2022/03/30 00:30:05;;;;;;;15.77;9.87;;;;;;;13.86;46.05;94150.06;5087134;28;20651;-75
2022/03/30 00:32:32;;;;;;;17.87;9.93;;;;;;;13.84;45.90;94140.91;5086561;28;20329;-77
2022/03/30 00:34:59;;;;;;;15.97;10.10;;;;;;;13.82;45.94;94138.53;5085693;28;20182;-76
2022/03/30 00:37:27;;;;;;;25.90;11.03;;;;;;;13.79;46.34;94133.72;5087401;28;20194;-75
2022/03/30 00:39:54;;;;;;;17.33;9.50;;;;;;;13.77;46.36;94145.94;5087064;28;20183;-80
2022/03/30 00:42:23;;;;;;;19.67;10.13;;;;;;;13.74;46.55;94144.53;5086426;28;20193;-78
2022/03/30 00:44:50;;;;;;;15.17;10.27;;;;;;;13.69;46.62;94139.09;5086897;28;20186;-78
2022/03/30 00:47:19;;;;;;;15.70;10.33;;;;;;;13.69;46.59;94139.09;5086558;28;20818;-79
2022/03/30 00:49:46;;;;;;;14.70;10.00;;;;;;;13.68;46.88;94149.53;5086973;28;20272;-74
2022/03/30 00:52:14;;;;;;;17.77;11.47;;;;;;;13.67;46.74;94147.94;5086439;28;20312;-71
2022/03/30 00:54:45;;;;;;;16.97;9.70;;;;;;;13.63;46.74;94133.81;5086758;28;20370;-78
2022/03/30 00:57:14;;;;;;;21.97;10.60;;;;;;;13.60;46.90;94147.81;5086371;28;20189;-74
2022/03/30 00:59:42;;;;;;;16.67;10.77;;;;;;;13.56;47.07;94138.84;5085226;28;20186;-75
2022/03/30 01:02:09;;;;;;;23.47;10.83;;;;;;;13.58;47.05;94139.47;5086603;28;20254;-75
2022/03/30 01:04:36;;;;;;;15.23;10.00;;;;;;;13.56;46.98;94138.84;5086641;28;20182;-74
2022/03/30 01:07:03;;;;;;;24.13;10.97;;;;;;;13.55;47.09;94134.66;5087152;28;20228;-76
2022/03/30 01:09:30;;;;;;;14.83;9.87;;;;;;;13.52;47.11;94128.13;5086334;28;20186;-77
2022/03/30 01:11:59;;;;;;;18.70;9.97;;;;;;;13.48;47.32;94124.28;5086019;28;20202;-71
2022/03/30 01:14:27;;;;;;;18.53;9.80;;;;;;;13.48;47.16;94121.72;5086794;28;20185;-76
2022/03/30 01:16:54;;;;;;;18.50;9.87;;;;;;;13.45;47.20;94118.69;5085454;28;20612;-80
2022/03/30 01:19:21;;;;;;;18.43;10.20;;;;;;;13.44;47.24;94128.16;5086284;28;20200;-79
2022/03/30 01:21:49;;;;;;;14.93;9.87;;;;;;;13.40;47.49;94114.06;5085338;28;21796;-72
2022/03/30 01:24:17;;;;;;;15.23;9.67;;;;;;;13.40;47.34;94129.47;5085888;28;20182;-79
2022/03/30 01:26:44;;;;;;;18.87;9.93;;;;;;;13.36;47.41;94120.50;5086903;28;20205;-74
2022/03/30 01:34:40;;;;;;;15.27;9.93;;;;;;;13.34;47.54;94131.88;5085846;28;20184;-79
2022/03/30 01:37:10;;;;;;;17.60;9.30;;;;;;;13.33;47.78;94130.28;5085916;28;20189;-77
2022/03/30 01:39:38;;;;;;;16.17;10.63;;;;;;;13.28;47.54;94133.38;5086032;28;20189;-78
2022/03/30 01:42:05;;;;;;;15.30;10.23;;;;;;;13.27;47.51;94132.56;5086667;28;20637;-80
2022/03/30 01:44:32;;;;;;;14.37;9.97;;;;;;;13.27;47.59;94136.91;5086070;28;20182;-80
2022/03/30 01:46:59;;;;;;;17.53;9.33;;;;;;;13.26;47.65;94137.88;5086430;28;20202;-74
2022/03/30 01:49:26;;;;;;;16.00;9.57;;;;;;;13.24;47.62;94137.25;5085710;28;20194;-76
2022/03/30 01:51:55;;;;;;;15.37;9.43;;;;;;;13.24;47.77;94142.38;5084715;28;20193;-78
2022/03/30 01:54:25;;;;;;;17.80;9.70;;;;;;;13.22;47.92;94137.41;5085950;28;20182;-76
2022/03/30 01:56:53;;;;;;;18.87;9.83;;;;;;;13.19;48.03;94144.63;5085947;28;20192;-76
2022/03/30 01:59:21;;;;;;;11.87;8.80;;;;;;;13.17;48.06;94133.69;5085583;28;20806;-78
2022/03/30 02:01:48;;;;;;;17.93;10.37;;;;;;;13.14;47.91;94139.19;5086080;28;20181;-77
2022/03/30 02:04:15;;;;;;;13.70;9.57;;;;;;;13.14;48.33;94142.56;5085507;28;20667;-78
2022/03/30 02:06:42;;;;;;;16.33;10.37;;;;;;;13.14;47.99;94142.56;5085392;28;20197;-76
2022/03/30 02:09:12;;;;;;;16.80;9.77;;;;;;;13.12;48.02;94136.75;5086400;28;20177;-78
2022/03/30 02:11:40;;;;;;;19.43;10.07;;;;;;;13.11;48.24;94154.91;5086387;28;20190;-73
2022/03/30 02:14:07;;;;;;;15.90;9.20;;;;;;;13.04;48.15;94142.75;5086872;28;20208;-78
2022/03/30 02:16:34;;;;;;;16.57;9.60;;;;;;;13.05;48.20;94148.69;5086319;28;20192;-78
2022/03/30 02:19:01;;;;;;;12.67;9.17;;;;;;;13.03;48.31;94151.41;5085922;28;20894;-76
2022/03/30 02:21:27;;;;;;;18.57;10.20;;;;;;;13.02;48.30;94159.28;5085960;28;20636;-80
2022/03/30 02:23:54;;;;;;;14.23;10.33;;;;;;;13.00;48.38;94150.97;5086073;28;20285;-75
2022/03/30 02:26:21;;;;;;;19.07;9.87;;;;;;;12.99;48.50;94160.41;5084995;28;20181;-77
2022/03/30 02:28:51;;;;;;;15.17;9.33;;;;;;;12.97;48.51;94153.84;5086365;28;20202;-76
2022/03/30 02:31:18;;;;;;;15.17;9.47;;;;;;;12.95;48.53;94154.03;5085766;28;20232;-78
2022/03/30 02:33:45;;;;;;;14.10;9.50;;;;;;;12.95;48.60;94153.19;5085742;28;20186;-75
2022/03/30 02:36:12;;;;;;;18.40;10.27;;;;;;;12.91;48.50;94165.56;5088624;28;20201;-74
2022/03/30 02:38:39;;;;;;;17.87;10.20;;;;;;;12.89;48.66;94159.78;5089526;28;20665;-74
2022/03/30 02:41:06;;;;;;;18.67;9.97;;;;;;;12.88;48.92;94152.28;5088987;28;20185;-77
2022/03/30 02:43:34;;;;;;;17.07;9.77;;;;;;;12.86;49.04;94156.75;5089413;28;20178;-75
2022/03/30 02:46:04;;;;;;;19.13;9.57;;;;;;;12.85;48.85;94160.28;5088543;28;20190;-76
2022/03/30 02:48:33;;;;;;;16.23;9.30;;;;;;;12.83;49.05;94157.91;5088677;28;20218;-77
2022/03/30 02:51:02;;;;;;;15.90;9.90;;;;;;;12.83;48.89;94159.66;5088878;28;20178;-78
2022/03/30 02:53:29;;;;;;;17.63;9.87;;;;;;;12.80;48.84;94159.00;5087901;28;20221;-73
2022/03/30 02:55:56;;;;;;;18.80;10.40;;;;;;;12.79;49.05;94159.19;5089014;28;20193;-73
2022/03/30 02:58:23;;;;;;;14.57;10.47;;;;;;;12.78;49.09;94155.81;5089121;28;20276;-78
2022/03/30 03:00:50;;;;;;;19.43;11.03;;;;;;;12.76;49.20;94150.03;5089003;28;20185;-79
2022/03/30 03:03:18;;;;;;;14.33;10.73;;;;;;;12.74;49.33;94154.56;5086416;28;20192;-75
2022/03/30 03:05:45;;;;;;;18.30;10.30;;;;;;;12.72;49.34;94142.84;5088771;28;20174;-76
2022/03/30 03:08:13;;;;;;;18.80;11.20;;;;;;;12.70;49.32;94144.78;5087792;28;20224;-77
2022/03/30 03:10:42;;;;;;;13.70;10.60;;;;;;;12.70;49.53;94142.22;5088296;28;20652;-80
2022/03/30 03:13:09;;;;;;;15.63;10.67;;;;;;;12.68;49.38;94150.06;5088000;28;20197;-75
2022/03/30 03:15:38;;;;;;;17.87;11.37;;;;;;;12.66;49.49;94153.78;5088485;28;20186;-77
2022/03/30 03:18:06;;;;;;;16.77;10.23;;;;;;;12.63;49.66;94149.75;5087742;28;20193;-77
2022/03/30 03:20:35;;;;;;;14.97;10.20;;;;;;;12.61;49.61;94146.56;5088366;28;20192;-77
2022/03/30 03:23:03;;;;;;;14.77;10.57;;;;;;;12.59;49.77;94139.97;5087303;28;20262;-78
2022/03/30 03:25:32;;;;;;;18.57;11.00;;;;;;;12.57;49.70;94139.38;5088241;28;20196;-76
2022/03/30 03:28:00;;;;;;;13.37;10.33;;;;;;;12.54;50.03;94138.72;5087419;28;20205;-79
2022/03/30 03:30:27;;;;;;;17.63;9.83;;;;;;;12.50;49.90;94136.63;5088690;28;20212;-77
2022/03/30 03:32:54;;;;;;;15.37;9.07;;;;;;;12.53;49.99;94144.00;5086426;28;20200;-77
2022/03/30 03:35:21;;;;;;;20.27;11.67;;;;;;;12.47;50.10;94137.75;5088004;28;20190;-78
2022/03/30 03:37:49;;;;;;;20.03;10.70;;;;;;;12.47;49.92;94134.38;5087866;28;20193;-76
2022/03/30 03:40:17;;;;;;;20.13;11.30;;;;;;;12.50;50.02;94140.00;5087966;28;20616;-76
2022/03/30 03:42:44;;;;;;;17.80;10.13;;;;;;;12.48;50.17;94141.16;5087412;28;20661;-74
2022/03/30 03:45:11;;;;;;;16.20;10.63;;;;;;;12.48;50.09;94144.50;5086603;28;20590;-78
2022/03/30 03:47:38;;;;;;;23.03;11.07;;;;;;;12.46;50.35;94140.47;5087678;28;20213;-77
2022/03/30 03:50:06;;;;;;;21.70;11.17;;;;;;;12.47;50.35;94136.94;5088661;28;20181;-77
2022/03/30 03:52:33;;;;;;;20.77;10.97;;;;;;;12.47;50.31;94144.66;5086949;28;20221;-74
2022/03/30 03:55:03;;;;;;;21.00;11.07;;;;;;;12.44;50.35;94135.53;5087294;28;20277;-76
2022/03/30 03:57:32;;;;;;;19.53;10.07;;;;;;;12.43;50.39;94133.91;5087122;28;20391;-76
2022/03/30 03:59:59;;;;;;;21.23;10.67;;;;;;;12.42;50.37;94132.31;5087260;28;20276;-72
2022/03/30 04:02:26;;;;;;;17.03;10.60;;;;;;;12.40;50.58;94134.25;5087471;28;20659;-80
2022/03/30 04:04:53;;;;;;;16.80;11.33;;;;;;;12.38;50.56;94131.03;5087473;28;20201;-79
2022/03/30 04:07:19;;;;;;;17.50;11.37;;;;;;;12.39;50.62;94130.09;5087429;28;20198;-72
2022/03/30 04:09:46;;;;;;;17.33;10.47;;;;;;;12.39;50.74;94132.66;5087817;28;20655;-78
2022/03/30 04:12:14;;;;;;;18.27;11.43;;;;;;;12.38;50.55;94131.03;5087660;28;20641;-76
2022/03/30 04:14:41;;;;;;;16.73;11.27;;;;;;;12.36;50.57;94135.53;5086753;28;20564;-75
2022/03/30 04:17:08;;;;;;;13.40;10.07;;;;;;;12.37;50.63;94126.88;5087566;28;20182;-76
2022/03/30 04:19:35;;;;;;;15.20;10.43;;;;;;;12.38;50.86;94136.16;5087228;28;20694;-75
2022/03/30 04:22:02;;;;;;;21.03;10.07;;;;;;;12.38;50.92;94143.06;5090750;28;20189;-75
2022/03/30 04:24:29;;;;;;;17.50;10.73;;;;;;;12.39;50.86;94155.75;5091516;28;20194;-79
2022/03/30 04:26:56;;;;;;;17.00;10.83;;;;;;;12.39;50.63;94135.22;5093500;28;20197;-75
2022/03/30 04:29:24;;;;;;;19.83;11.40;;;;;;;12.42;50.83;94146.91;5091555;28;20213;-77
2022/03/30 04:31:52;;;;;;;22.80;11.43;;;;;;;12.45;50.94;94138.91;5091900;28;20201;-77
2022/03/30 04:34:19;;;;;;;19.27;10.77;;;;;;;12.43;50.88;94138.25;5091496;28;20193;-83
2022/03/30 04:36:46;;;;;;;17.77;11.20;;;;;;;12.47;50.98;94135.19;5094369;28;20255;-76
2022/03/30 04:39:13;;;;;;;22.80;11.50;;;;;;;12.55;50.76;94142.88;5092940;28;20185;-79
2022/03/30 04:41:39;;;;;;;22.03;12.30;;;;;;;12.61;50.92;94136.31;5094961;28;20202;-77
2022/03/30 04:44:07;;;;;;;25.30;11.20;;;;;;;12.68;50.64;94139.00;5093999;28;20559;-73
2022/03/30 04:46:35;;;;;;;22.53;12.70;;;;;;;12.75;50.41;94140.75;5092282;28;20192;-85
2022/03/30 04:49:02;;;;;;;19.80;11.53;;;;;;;12.84;50.43;94138.16;5091351;28;20224;-80
2022/03/30 04:51:29;;;;;;;17.63;10.77;;;;;;;12.92;50.39;94138.16;5090191;28;20196;-77
2022/03/30 04:53:56;;;;;;;19.03;11.23;;;;;;;12.98;50.15;94134.91;5090442;28;20639;-79
2022/03/30 04:56:24;;;;;;;21.60;11.43;;;;;;;13.09;50.27;94129.41;5090812;28;20280;-71
2022/03/30 04:58:51;;;;;;;17.33;11.00;;;;;;;13.19;50.11;94137.72;5090339;28;20186;-78
2022/03/30 05:01:18;;;;;;;18.87;10.90;;;;;;;13.33;49.74;94138.00;5090076;28;20184;-79
2022/03/30 05:03:46;;;;;;;22.33;11.23;;;;;;;13.50;49.24;94145.44;5090698;28;20189;-80
2022/03/30 05:06:13;;;;;;;16.50;9.93;;;;;;;13.71;48.97;94155.13;5090134;28;20561;-74
2022/03/30 05:08:40;;;;;;;18.10;10.13;;;;;;;13.96;48.87;94153.22;5089960;28;20338;-77
2022/03/30 05:11:07;;;;;;;16.70;10.70;;;;;;;14.28;48.75;94147.00;5090150;28;20190;-81
2022/03/30 05:13:34;;;;;;;21.93;9.97;;;;;;;14.58;48.39;94148.88;5090505;28;20182;-79
2022/03/30 05:16:00;;;;;;;16.27;9.47;;;;;;;15.00;48.24;94146.50;5090479;28;20182;-78
2022/03/30 05:18:27;;;;;;;16.57;9.77;;;;;;;15.53;48.16;94157.44;5090775;28;20197;-76
2022/03/30 05:20:55;;;;;;;21.07;9.90;;;;;;;16.00;47.53;94158.78;5090213;28;20656;-77
2022/03/30 05:23:22;;;;;;;21.60;8.97;;;;;;;16.53;47.07;94161.00;5089908;28;20208;-81
2022/03/30 05:25:49;;;;;;;18.00;8.87;;;;;;;17.05;46.46;94158.03;5090417;28;20202;-81
2022/03/30 05:28:16;;;;;;;16.07;9.20;;;;;;;17.60;45.60;94158.06;5090280;28;20588;-77
2022/03/30 05:30:42;;;;;;;14.67;9.07;;;;;;;18.13;44.74;94157.41;5090794;28;20216;-83
2022/03/30 05:33:09;;;;;;;24.37;10.43;;;;;;;18.65;43.82;94155.84;5090354;28;20194;-81
2022/03/30 05:35:36;;;;;;;19.67;9.10;;;;;;;19.18;43.11;94153.22;5090646;28;20182;-82
2022/03/30 05:38:04;;;;;;;15.60;9.07;;;;;;;19.78;42.16;94161.59;5090493;28;20276;-82
2022/03/30 05:40:31;;;;;;;19.50;9.43;;;;;;;20.38;41.36;94153.41;5089761;28;20262;-81
2022/03/30 05:42:58;;;;;;;17.83;9.80;;;;;;;20.97;40.47;94155.53;5090305;28;20182;-84
2022/03/30 05:45:25;;;;;;;20.83;9.57;;;;;;;21.56;39.56;94155.16;5089781;28;20221;-83
2022/03/30 05:47:52;;;;;;;19.07;9.07;;;;;;;22.15;38.70;94158.81;5089846;28;20205;-83
2022/03/30 05:50:21;;;;;;;19.17;10.07;;;;;;;22.71;37.84;94155.75;5089884;28;20585;-83
2022/03/30 05:52:47;;;;;;;15.93;9.57;;;;;;;23.31;37.12;94156.53;5089731;28;20226;-82
2022/03/30 05:55:16;;;;;;;14.27;9.60;;;;;;;23.88;36.16;94160.06;5090037;28;20193;-82
2022/03/30 05:57:43;;;;;;;19.13;10.45;;;;;;;24.45;35.33;94160.03;5090372;28;20189;-75
2022/03/30 06:00:12;;;;;;;13.48;8.52;;;;;;;25.02;34.68;94159.06;5090009;28;20193;-72
2022/03/30 06:02:38;;;;;;;15.18;9.85;;;;;;;25.56;33.72;94159.31;5089625;28;20661;-71
2022/03/30 06:05:06;;;;;;;18.20;10.20;;;;;;;26.09;32.83;94162.25;5088822;28;20653;-73
2022/03/30 06:07:33;;;;;;;17.35;9.73;;;;;;;26.57;32.22;94156.16;5073589;28;20191;-70
2022/03/30 06:10:00;;;;;;;19.05;9.98;;;;;;;27.06;31.39;94163.88;5092376;28;20217;-70
2022/03/30 06:12:28;;;;;;;24.63;9.88;;;;;;;27.48;30.96;94169.13;5093607;28;20193;-73
2022/03/30 06:14:55;;;;;;;17.63;9.80;;;;;;;27.89;30.18;94174.59;5093016;28;20553;-79
2022/03/30 06:17:22;;;;;;;14.00;9.20;;;;;;;28.11;29.91;94153.34;5092913;28;20189;-72
2022/03/30 06:19:52;;;;;;;13.55;9.38;;;;;;;28.58;29.30;94176.03;5091398;28;20197;-80
2022/03/30 06:22:20;;;;;;;14.80;9.38;;;;;;;28.94;28.70;94171.56;5091965;28;20212;-77
2022/03/30 06:24:48;;;;;;;15.48;9.38;;;;;;;29.29;28.29;94175.22;5091929;28;20204;-74
2022/03/30 06:27:16;;;;;;;16.85;10.25;;;;;;;29.66;28.00;94179.34;5092269;28;20194;-78
2022/03/30 06:29:44;;;;;;;17.23;8.93;;;;;;;29.98;27.32;94169.19;5092134;28;20225;-69
2022/03/30 06:32:11;;;;;;;16.42;9.63;;;;;;;30.33;27.28;94166.66;5091820;28;20568;-79
2022/03/30 06:34:38;;;;;;;11.50;7.95;;;;;;;30.66;26.77;94173.81;5091810;28;20197;-82
2022/03/30 06:37:06;;;;;;;19.65;10.23;;;;;;;30.93;26.42;94180.50;5091148;28;20193;-82
2022/03/30 06:39:33;;;;;;;17.13;9.98;;;;;;;31.16;26.39;94184.25;5091963;28;20193;-80
2022/03/30 06:42:00;;;;;;;15.52;9.85;;;;;;;31.25;26.29;94187.84;5091018;28;20685;-82
2022/03/30 06:44:26;;;;;;;14.30;9.75;;;;;;;31.28;26.38;94189.16;5092042;28;20561;-78
2022/03/30 06:46:55;;;;;;;19.33;9.43;;;;;;;31.42;25.38;94182.16;5091707;28;20186;-78
2022/03/30 06:49:22;;;;;;;18.73;10.20;;;;;;;31.60;25.67;94191.22;5092158;28;20317;-82
2022/03/30 06:51:49;;;;;;;17.95;10.13;;;;;;;31.79;25.29;94186.78;5091668;28;20190;-78
2022/03/30 06:54:16;;;;;;;18.27;10.15;;;;;;;32.00;24.75;94195.28;5091432;28;20201;-78
2022/03/30 06:56:43;;;;;;;19.75;10.05;;;;;;;32.18;24.66;94199.03;5091551;28;20259;-82
2022/03/30 06:59:12;;;;;;;15.75;9.88;;;;;;;32.40;24.50;94201.13;5091666;28;20221;-75
2022/03/30 07:01:38;;;;;;;19.92;10.18;;;;;;;32.56;24.15;94193.75;5092020;28;20598;-78
2022/03/30 07:04:07;;;;;;;16.75;10.38;;;;;;;32.72;24.21;94197.72;5091603;28;20200;-77
2022/03/30 07:06:33;;;;;;;18.83;10.13;;;;;;;32.95;23.99;94198.75;5091913;28;20182;-80
2022/03/30 07:11:44;;;;;;;18.70;10.27;;;;;;;33.48;23.63;94190.41;5090635;28;20323;-83
2022/03/30 07:14:11;;;;;;;17.08;10.02;;;;;;;33.71;23.43;94199.25;5091413;28;20193;-77
2022/03/30 07:16:38;;;;;;;19.38;10.70;;;;;;;33.90;23.01;94201.81;5091485;28;20251;-81
2022/03/30 07:19:07;;;;;;;14.77;9.98;;;;;;;34.05;23.15;94192.78;5091088;28;20201;-77
2022/03/30 07:21:33;;;;;;;16.90;11.02;;;;;;;34.20;22.82;94182.63;5090472;28;20216;-81
2022/03/30 07:24:00;;;;;;;17.63;9.70;;;;;;;34.31;22.56;94187.72;5091155;28;20205;-77
2022/03/30 07:26:27;;;;;;;15.55;9.80;;;;;;;34.41;22.41;94184.81;5091706;28;20224;-83
2022/03/30 07:28:54;;;;;;;14.63;10.10;;;;;;;34.52;22.31;94175.59;5091011;28;20241;-81
2022/03/30 07:31:21;;;;;;;13.98;10.00;;;;;;;34.65;22.40;94179.28;5091160;28;20190;-73
2022/03/30 07:33:48;;;;;;;22.05;10.75;;;;;;;34.79;21.91;94182.66;5090759;28;20606;-80
2022/03/30 07:36:16;;;;;;;16.73;10.07;;;;;;;34.94;21.95;94179.63;5089068;28;20186;-81
2022/03/30 07:38:43;;;;;;;15.35;10.35;;;;;;;35.05;21.98;94174.84;5091368;28;20220;-71
2022/03/30 07:41:09;;;;;;;14.40;10.75;;;;;;;35.21;21.64;94187.78;5090671;28;20185;-81
2022/03/30 07:43:36;;;;;;;15.02;10.13;;;;;;;35.27;21.66;94183.88;5091719;28;20182;-80
2022/03/30 07:46:03;;;;;;;12.07;10.02;;;;;;;35.36;21.47;94187.38;5090521;28;20193;-81
2022/03/30 07:48:30;;;;;;;15.25;10.50;;;;;;;35.41;21.54;94190.69;5091312;28;20224;-81
2022/03/30 07:50:57;;;;;;;14.30;9.70;;;;;;;35.47;21.32;94185.25;5091200;28;20544;-81
2022/03/30 07:53:25;;;;;;;14.88;10.43;;;;;;;35.49;21.41;94180.41;5090696;28;20232;-81
2022/03/30 07:55:52;;;;;;;18.10;10.20;;;;;;;35.63;21.26;94181.13;5091119;28;20186;-82
2022/03/30 07:58:20;;;;;;;14.40;9.20;;;;;;;35.73;21.02;94190.69;5091817;28;20192;-80
2022/03/30 08:00:47;;;;;;;19.50;11.05;;;;;;;35.81;21.18;94177.41;5091375;28;20186;-82
2022/03/30 08:03:14;;;;;;;14.50;11.02;;;;;;;35.88;20.95;94182.25;5090977;28;20200;-82
2022/03/30 08:05:40;;;;;;;16.38;11.32;;;;;;;35.97;20.98;94179.66;5090726;28;20645;-82
2022/03/30 08:08:08;;;;;;;22.60;11.85;;;;;;;36.03;20.63;94181.09;5091122;28;20189;-81
2022/03/30 08:10:37;;;;;;;15.45;10.80;;;;;;;36.08;20.77;94173.72;5090729;28;20218;-73
2022/03/30 08:13:05;;;;;;;17.05;11.32;;;;;;;36.09;20.55;94163.84;5090893;28;20239;-81
2022/03/30 08:15:32;;;;;;;19.23;10.52;;;;;;;36.13;20.65;94175.47;5090922;28;20190;-79
2022/03/30 08:17:59;;;;;;;16.55;10.98;;;;;;;36.01;20.63;94172.63;5090436;28;20190;-78
2022/03/30 08:23:11;;;;;;;25.38;11.57;;;;;;;35.54;21.00;94183.75;5088929;28;20220;-82
2022/03/30 08:25:40;;;;;;;26.83;12.23;;;;;;;35.31;21.09;94174.22;5090354;28;20182;-81
2022/03/30 08:28:07;;;;;;;23.33;10.80;;;;;;;35.17;21.15;94163.66;5073401;28;20195;-79
2022/03/30 08:30:35;;;;;;;23.77;11.90;;;;;;;35.12;21.06;94164.59;5091811;28;20213;-80
2022/03/30 08:33:03;;;;;;;24.52;11.77;;;;;;;35.10;21.04;94163.31;5090583;28;20182;-79
2022/03/30 08:35:30;;;;;;;27.65;12.23;;;;;;;34.99;21.28;94143.41;5091075;28;20182;-74
2022/03/30 08:37:57;;;;;;;19.77;11.55;;;;;;;34.80;21.35;94146.22;5090065;28;20194;-75
2022/03/30 08:40:25;;;;;;;21.15;11.00;;;;;;;34.66;21.40;94140.97;5088457;28;20976;-77
2022/03/30 08:42:54;;;;;;;20.67;11.32;;;;;;;34.54;21.50;94136.22;5088295;28;20764;-81
2022/03/30 08:45:22;;;;;;;14.55;11.18;;;;;;;34.43;21.35;94137.53;5090168;28;20194;-82
2022/03/30 08:47:49;;;;;;;21.02;10.23;;;;;;;34.35;21.71;94125.75;5089073;28;20185;-78
2022/03/30 08:50:16;;;;;;;23.05;11.35;;;;;;;34.30;21.49;94117.91;5089368;28;20213;-72
2022/03/30 08:52:45;;;;;;;16.70;10.18;;;;;;;34.19;21.59;94112.03;5089366;28;20227;-81
2022/03/30 08:55:11;;;;;;;20.92;11.15;;;;;;;34.01;21.56;94106.88;5089270;28;20671;-77
2022/03/30 08:57:38;;;;;;;22.95;11.05;;;;;;;33.80;21.76;94109.16;5090209;28;20193;-83
2022/03/30 09:00:09;;;;;;;28.45;11.65;;;;;;;33.55;21.71;94107.81;5090221;28;20198;-82
2022/03/30 09:02:40;;;;;;;20.70;10.65;;;;;;;33.21;22.21;94111.63;5089775;28;20189;-78
2022/03/30 09:05:19;;;;;;;15.85;10.05;;;;;;;32.86;22.13;94110.34;5089398;28;20196;-80
2022/03/30 09:07:49;;;;;;;26.95;10.88;;;;;;;32.56;22.56;94101.09;5088466;28;20204;-79
2022/03/30 09:10:19;;;;;;;20.73;10.75;;;;;;;32.27;22.67;94111.84;5089209;28;20658;-81
2022/03/30 09:12:47;;;;;;;19.23;10.18;;;;;;;31.97;22.73;94098.75;5089098;28;20186;-82
2022/03/30 09:15:16;;;;;;;21.58;10.57;;;;;;;31.77;22.85;94093.69;5089227;28;20182;-79
2022/03/30 09:17:44;;;;;;;14.88;9.98;;;;;;;31.66;22.92;94089.63;5088865;28;20201;-78
2022/03/30 09:20:17;;;;;;;19.92;9.45;;;;;;;31.57;23.13;94075.47;5089184;28;20198;-82
2022/03/30 09:22:49;;;;;;;18.88;9.10;;;;;;;31.44;22.85;94069.81;5086599;28;20181;-72
2022/03/30 09:25:17;;;;;;;17.77;9.35;;;;;;;31.43;23.03;94065.59;5089213;28;20208;-80
2022/03/30 09:27:45;;;;;;;19.15;9.38;;;;;;;31.42;23.13;94073.78;5088122;28;20640;-79
2022/03/30 09:30:17;;;;;;;16.73;9.00;;;;;;;31.34;22.86;94069.91;5089103;28;20291;-74
2022/03/30 09:32:46;;;;;;;11.23;8.18;;;;;;;31.20;23.27;94072.44;5088722;28;20225;-76
2022/03/30 09:35:24;;;;;;;22.20;8.82;;;;;;;31.05;23.09;94077.13;5088877;28;20273;-78
2022/03/30 09:38:06;;;;;;;15.80;8.18;;;;;;;30.88;23.24;94074.91;5088709;28;20201;-80
2022/03/30 09:40:39;;;;;;;14.25;7.70;;;;;;;30.79;22.83;94050.19;5085836;28;20233;-81
2022/03/30 09:43:14;;;;;;;17.30;7.72;;;;;;;30.70;23.28;94045.50;5088478;28;20738;-76
2022/03/30 09:45:43;;;;;;;15.02;7.10;;;;;;;30.64;23.23;94030.75;5089248;28;20223;-78
2022/03/30 09:48:15;;;;;;;13.75;7.47;;;;;;;30.53;22.99;94024.00;5088394;28;20201;-82
2022/03/30 09:50:47;;;;;;;12.70;6.65;;;;;;;30.44;22.94;94015.09;5090388;28;20603;-84
2022/03/30 09:53:18;;;;;;;14.55;7.47;;;;;;;30.42;22.98;94023.31;5089027;28;20233;-74
2022/03/30 09:55:58;;;;;;;14.60;6.20;;;;;;;30.37;22.87;94017.28;5088549;28;20200;-73
2022/03/30 09:58:26;;;;;;;15.82;6.97;;;;;;;30.30;22.93;94019.47;5088575;28;20196;-76
2022/03/30 10:01:12;;;;;;;9.48;5.82;;;;;;;30.23;22.82;94017.16;5088345;28;20613;-73
2022/03/30 10:03:43;;;;;;;17.80;6.47;;;;;;;30.20;22.76;94009.78;5088868;28;20194;-76
2022/03/30 10:06:10;;;;;;;14.40;6.00;;;;;;;30.16;22.77;93999.00;5087066;28;20197;-73
2022/03/30 10:08:37;;;;;;;10.68;5.65;;;;;;;30.10;23.16;93988.75;5088100;28;20181;-74
2022/03/30 10:11:04;;;;;;;10.90;5.88;;;;;;;30.04;22.67;93995.91;5086164;28;20683;-74
2022/03/30 10:13:31;;;;;;;11.13;5.38;;;;;;;29.93;23.00;93981.25;5088412;28;20264;-75
2022/03/30 10:15:59;;;;;;;11.60;5.47;;;;;;;29.98;22.94;93984.63;5088867;28;20208;-74
2022/03/30 10:18:27;;;;;;;9.88;5.07;;;;;;;29.94;23.00;93988.88;5085579;28;20205;-73
2022/03/30 10:21:07;;;;;;;7.68;5.28;;;;;;;29.92;22.83;93982.28;5087848;28;20664;-75
2022/03/30 10:23:46;;;;;;;12.63;4.43;;;;;;;29.87;23.00;93982.31;5087563;28;20668;-76
2022/03/30 10:26:19;;;;;;;9.90;5.07;;;;;;;29.82;22.53;93977.88;5087488;28;20204;-76
2022/03/30 10:28:58;;;;;;;10.48;4.80;;;;;;;29.81;22.53;93975.53;5088641;28;20193;-75
2022/03/30 10:31:26;;;;;;;6.65;4.88;;;;;;;29.83;22.71;93966.25;5083653;28;20213;-74
2022/03/30 10:33:54;;;;;;;9.82;5.30;;;;;;;29.79;22.81;93957.31;5087442;28;20586;-76
2022/03/30 10:36:23;;;;;;;9.18;4.53;;;;;;;29.82;22.77;93954.16;5087788;28;20257;-75
2022/03/30 10:39:25;;;;;;;11.23;4.75;;;;;;;29.80;22.36;93966.06;5088137;28;20185;-75
2022/03/30 10:41:54;;;;;;;13.50;4.65;;;;;;;29.76;22.81;93965.03;5088218;28;20669;-75
2022/03/30 10:44:41;;;;;;;8.80;4.75;;;;;;;29.73;22.71;93961.06;5088084;28;20598;-74
2022/03/30 10:47:12;;;;;;;7.13;4.50;;;;;;;29.74;22.55;93944.19;5088260;28;20643;-78
2022/03/30 10:49:43;;;;;;;12.25;4.95;;;;;;;29.74;22.50;93947.59;5085377;28;20224;-74
2022/03/30 10:52:37;;;;;;;11.35;4.07;;;;;;;29.52;22.84;93907.69;5088072;28;20739;-74
2022/03/30 10:55:38;;;;;;;12.77;4.75;;;;;;;29.65;22.63;93953.75;5087002;28;20285;-77
2022/03/30 10:58:15;;;;;;;13.45;4.47;;;;;;;29.55;22.84;93946.69;5091898;28;20189;-75
2022/03/30 11:00:41;;;;;;;10.50;4.20;;;;;;;29.49;23.04;93942.50;5092186;28;20192;-76
2022/03/30 11:03:14;;;;;;;12.25;4.88;;;;;;;29.46;22.76;93945.69;5091552;28;20272;-75
2022/03/30 11:05:46;;;;;;;9.40;4.93;;;;;;;29.40;22.79;93944.13;5092233;28;20190;-74
2022/03/30 11:08:51;;;;;;;7.90;4.35;;;;;;;29.32;22.64;93935.00;5090242;28;20200;-75
2022/03/30 11:11:23;;;;;;;15.13;4.50;;;;;;;29.24;22.92;93923.19;5091188;28;20221;-77
2022/03/30 11:13:50;;;;;;;9.07;5.18;;;;;;;29.18;22.69;93929.50;5091721;28;20206;-77
2022/03/30 11:16:17;;;;;;;9.18;4.70;;;;;;;29.11;23.15;93933.53;5091270;28;20212;-75
2022/03/30 11:19:02;;;;;;;10.35;4.50;;;;;;;29.03;23.08;93931.47;5091496;28;20576;-77
2022/03/30 11:21:31;;;;;;;8.38;4.15;;;;;;;28.94;22.83;93939.88;5091315;28;20308;-74
2022/03/30 11:24:20;;;;;;;12.52;5.10;;;;;;;28.87;22.84;93931.50;5091890;28;20200;-75
2022/03/30 11:27:20;;;;;;;11.93;4.55;;;;;;;28.80;23.00;93949.44;5091506;28;20197;-75
2022/03/30 11:30:03;;;;;;;7.28;4.63;;;;;;;28.72;23.16;93936.84;5091576;28;20212;-78
2022/03/30 11:32:37;;;;;;;9.73;4.85;;;;;;;28.65;23.05;93937.09;5090019;28;20190;-75
2022/03/30 11:35:06;;;;;;;13.25;4.47;;;;;;;28.53;23.24;93922.69;5091624;28;20193;-80
2022/03/30 11:37:36;;;;;;;9.73;3.97;;;;;;;28.46;23.43;93925.59;5091330;28;20185;-77
2022/03/30 11:40:07;;;;;;;8.23;4.18;;;;;;;28.34;23.32;93925.88;5091061;28;20220;-77